sensor_id;sensor_type;location;lat;lon;timestamp;pressure;altitude;pressure_sealevel;temperature;humidity
73566;BME280;61846;52.970;-3.168;2023-05-28T00:00:42;101561.21;;;16.21;43.06
73566;BME280;61846;52.970;-3.168;2023-05-28T00:03:08;101562.53;;;16.47;42.25
73566;BME280;61846;52.970;-3.168;2023-05-28T00:05:33;101561.82;;;16.84;41.65
73566;BME280;61846;52.970;-3.168;2023-05-28T00:07:59;101558.95;;;16.97;41.56
73566;BME280;61846;52.970;-3.168;2023-05-28T00:10:24;101560.11;;;17.24;41.29
73566;BME280;61846;52.970;-3.168;2023-05-28T00:12:50;101554.46;;;17.18;41.29
73566;BME280;61846;52.970;-3.168;2023-05-28T00:15:15;101551.95;;;17.04;41.66
73566;BME280;61846;52.970;-3.168;2023-05-28T00:17:41;101548.27;;;15.91;42.84
73566;BME280;61846;52.970;-3.168;2023-05-28T00:20:07;101548.16;;;16.69;41.25
73566;BME280;61846;52.970;-3.168;2023-05-28T00:22:32;101543.77;;;16.99;41.05
73566;BME280;61846;52.970;-3.168;2023-05-28T00:24:58;101540.87;;;17.42;40.91
73566;BME280;61846;52.970;-3.168;2023-05-28T00:27:23;101537.89;;;17.56;40.43
73566;BME280;61846;52.970;-3.168;2023-05-28T00:29:49;101539.24;;;17.12;40.77
73566;BME280;61846;52.970;-3.168;2023-05-28T00:32:14;101540.21;;;17.39;40.83
73566;BME280;61846;52.970;-3.168;2023-05-28T00:34:39;101544.55;;;17.35;40.64
73566;BME280;61846;52.970;-3.168;2023-05-28T00:37:05;101547.14;;;16.51;41.90
73566;BME280;61846;52.970;-3.168;2023-05-28T00:39:30;101540.93;;;16.93;41.65
73566;BME280;61846;52.970;-3.168;2023-05-28T00:42:00;101538.64;;;16.97;41.26
73566;BME280;61846;52.970;-3.168;2023-05-28T00:44:21;101536.46;;;17.10;41.43
73566;BME280;61846;52.970;-3.168;2023-05-28T00:46:47;101533.92;;;17.03;41.57
73566;BME280;61846;52.970;-3.168;2023-05-28T00:49:12;101532.53;;;16.70;42.10
73566;BME280;61846;52.970;-3.168;2023-05-28T00:51:39;101528.77;;;16.31;42.91
73566;BME280;61846;52.970;-3.168;2023-05-28T00:54:03;101527.81;;;16.40;43.40
73566;BME280;61846;52.970;-3.168;2023-05-28T00:56:28;101528.40;;;16.32;43.59
73566;BME280;61846;52.970;-3.168;2023-05-28T00:58:54;101532.64;;;16.24;43.27
73566;BME280;61846;52.970;-3.168;2023-05-28T01:01:20;101530.69;;;16.30;43.72
73566;BME280;61846;52.970;-3.168;2023-05-28T01:03:45;101527.71;;;16.39;43.97
73566;BME280;61846;52.970;-3.168;2023-05-28T01:06:12;101522.99;;;15.16;45.13
73566;BME280;61846;52.970;-3.168;2023-05-28T01:08:36;101524.87;;;16.09;44.12
73566;BME280;61846;52.970;-3.168;2023-05-28T01:11:01;101528.55;;;16.15;44.04
73566;BME280;61846;52.970;-3.168;2023-05-28T01:13:26;101529.13;;;16.07;43.93
73566;BME280;61846;52.970;-3.168;2023-05-28T01:15:52;101533.55;;;14.47;46.66
73566;BME280;61846;52.970;-3.168;2023-05-28T01:18:17;101534.84;;;15.20;45.72
73566;BME280;61846;52.970;-3.168;2023-05-28T01:20:43;101531.08;;;15.78;44.15
73566;BME280;61846;52.970;-3.168;2023-05-28T01:23:11;101531.61;;;15.30;45.02
73566;BME280;61846;52.970;-3.168;2023-05-28T01:25:34;101539.44;;;15.83;44.01
73566;BME280;61846;52.970;-3.168;2023-05-28T01:27:59;101544.14;;;15.10;45.08
73566;BME280;61846;52.970;-3.168;2023-05-28T01:30:25;101541.99;;;16.03;44.12
73566;BME280;61846;52.970;-3.168;2023-05-28T01:32:50;101543.98;;;16.16;43.22
73566;BME280;61846;52.970;-3.168;2023-05-28T01:35:16;101540.89;;;16.20;43.04
73566;BME280;61846;52.970;-3.168;2023-05-28T01:37:45;101543.95;;;16.27;43.08
73566;BME280;61846;52.970;-3.168;2023-05-28T01:40:09;101551.08;;;15.74;43.77
73566;BME280;61846;52.970;-3.168;2023-05-28T01:42:34;101551.80;;;15.69;44.28
73566;BME280;61846;52.970;-3.168;2023-05-28T01:44:58;101548.80;;;16.08;43.25
73566;BME280;61846;52.970;-3.168;2023-05-28T01:47:23;101548.81;;;15.40;44.98
73566;BME280;61846;52.970;-3.168;2023-05-28T01:49:49;101547.66;;;15.30;45.38
73566;BME280;61846;52.970;-3.168;2023-05-28T01:52:14;101550.34;;;15.41;45.79
73566;BME280;61846;52.970;-3.168;2023-05-28T01:54:40;101543.50;;;15.93;44.55
73566;BME280;61846;52.970;-3.168;2023-05-28T01:57:05;101540.56;;;15.64;45.13
73566;BME280;61846;52.970;-3.168;2023-05-28T01:59:31;101538.83;;;16.04;44.71
73566;BME280;61846;52.970;-3.168;2023-05-28T02:01:56;101540.23;;;16.68;44.20
73566;BME280;61846;52.970;-3.168;2023-05-28T02:04:22;101539.15;;;16.05;44.34
73566;BME280;61846;52.970;-3.168;2023-05-28T02:06:47;101538.05;;;15.53;45.55
73566;BME280;61846;52.970;-3.168;2023-05-28T02:09:13;101535.33;;;16.00;45.26
73566;BME280;61846;52.970;-3.168;2023-05-28T02:11:38;101530.94;;;16.15;44.54
73566;BME280;61846;52.970;-3.168;2023-05-28T02:14:03;101533.58;;;16.05;44.89
73566;BME280;61846;52.970;-3.168;2023-05-28T02:16:29;101535.73;;;16.03;44.32
73566;BME280;61846;52.970;-3.168;2023-05-28T02:18:54;101528.93;;;16.02;43.78
73566;BME280;61846;52.970;-3.168;2023-05-28T02:21:20;101533.11;;;16.23;43.62
73566;BME280;61846;52.970;-3.168;2023-05-28T02:23:46;101536.11;;;15.71;44.40
73566;BME280;61846;52.970;-3.168;2023-05-28T02:26:11;101540.43;;;15.52;44.86
73566;BME280;61846;52.970;-3.168;2023-05-28T02:28:37;101544.10;;;15.81;44.45
73566;BME280;61846;52.970;-3.168;2023-05-28T02:31:02;101551.17;;;15.33;46.11
73566;BME280;61846;52.970;-3.168;2023-05-28T02:33:27;101547.27;;;15.57;45.72
73566;BME280;61846;52.970;-3.168;2023-05-28T02:35:53;101540.22;;;16.16;45.53
73566;BME280;61846;52.970;-3.168;2023-05-28T02:38:18;101543.33;;;15.26;46.73
73566;BME280;61846;52.970;-3.168;2023-05-28T02:40:43;101548.43;;;15.06;48.04
73566;BME280;61846;52.970;-3.168;2023-05-28T02:43:08;101545.34;;;14.94;48.75
73566;BME280;61846;52.970;-3.168;2023-05-28T02:45:34;101545.48;;;14.38;49.20
73566;BME280;61846;52.970;-3.168;2023-05-28T02:47:59;101541.96;;;14.23;50.15
73566;BME280;61846;52.970;-3.168;2023-05-28T02:50:25;101537.75;;;13.87;51.44
73566;BME280;61846;52.970;-3.168;2023-05-28T02:52:50;101542.38;;;14.13;50.62
73566;BME280;61846;52.970;-3.168;2023-05-28T02:55:16;101543.41;;;14.61;49.52
73566;BME280;61846;52.970;-3.168;2023-05-28T02:57:41;101547.41;;;14.28;50.26
73566;BME280;61846;52.970;-3.168;2023-05-28T03:00:08;101546.16;;;13.86;51.07
73566;BME280;61846;52.970;-3.168;2023-05-28T03:02:33;101546.39;;;14.94;49.18
73566;BME280;61846;52.970;-3.168;2023-05-28T03:04:57;101546.20;;;14.81;48.66
73566;BME280;61846;52.970;-3.168;2023-05-28T03:07:23;101550.45;;;14.84;49.09
73566;BME280;61846;52.970;-3.168;2023-05-28T03:09:49;101552.11;;;14.46;49.03
73566;BME280;61846;52.970;-3.168;2023-05-28T03:12:14;101549.92;;;15.05;48.19
73566;BME280;61846;52.970;-3.168;2023-05-28T03:14:40;101551.30;;;14.42;49.06
73566;BME280;61846;52.970;-3.168;2023-05-28T03:17:06;101552.49;;;14.13;49.56
73566;BME280;61846;52.970;-3.168;2023-05-28T03:19:31;101554.19;;;14.88;48.28
73566;BME280;61846;52.970;-3.168;2023-05-28T03:21:57;101556.05;;;15.10;48.40
73566;BME280;61846;52.970;-3.168;2023-05-28T03:24:22;101561.63;;;14.90;47.95
73566;BME280;61846;52.970;-3.168;2023-05-28T03:26:47;101560.00;;;14.73;48.38
73566;BME280;61846;52.970;-3.168;2023-05-28T03:29:13;101557.46;;;14.32;49.33
73566;BME280;61846;52.970;-3.168;2023-05-28T03:31:43;101555.59;;;14.45;49.12
73566;BME280;61846;52.970;-3.168;2023-05-28T03:34:04;101556.62;;;15.23;47.84
73566;BME280;61846;52.970;-3.168;2023-05-28T03:36:29;101558.28;;;15.27;47.00
73566;BME280;61846;52.970;-3.168;2023-05-28T03:38:55;101555.24;;;14.96;47.34
73566;BME280;61846;52.970;-3.168;2023-05-28T03:41:20;101557.72;;;15.14;47.22
73566;BME280;61846;52.970;-3.168;2023-05-28T03:43:45;101562.38;;;15.38;46.86
73566;BME280;61846;52.970;-3.168;2023-05-28T03:46:11;101560.14;;;15.77;47.10
73566;BME280;61846;52.970;-3.168;2023-05-28T03:48:36;101559.06;;;15.11;46.90
73566;BME280;61846;52.970;-3.168;2023-05-28T03:51:02;101559.62;;;15.75;46.26
73566;BME280;61846;52.970;-3.168;2023-05-28T03:53:27;101562.58;;;15.69;46.00
73566;BME280;61846;52.970;-3.168;2023-05-28T03:55:53;101562.39;;;15.43;46.49
73566;BME280;61846;52.970;-3.168;2023-05-28T03:58:18;101561.83;;;15.37;46.98
73566;BME280;61846;52.970;-3.168;2023-05-28T04:00:43;101554.84;;;15.29;48.13
73566;BME280;61846;52.970;-3.168;2023-05-28T04:03:09;101551.95;;;15.00;48.07
73566;BME280;61846;52.970;-3.168;2023-05-28T04:05:34;101554.48;;;14.62;48.40
73566;BME280;61846;52.970;-3.168;2023-05-28T04:07:59;101561.45;;;14.57;49.38
73566;BME280;61846;52.970;-3.168;2023-05-28T04:10:25;101561.44;;;15.20;48.30
73566;BME280;61846;52.970;-3.168;2023-05-28T04:12:50;101556.63;;;15.49;47.22
73566;BME280;61846;52.970;-3.168;2023-05-28T04:15:16;101554.55;;;14.89;47.86
73566;BME280;61846;52.970;-3.168;2023-05-28T04:17:41;101556.34;;;15.17;47.56
73566;BME280;61846;52.970;-3.168;2023-05-28T04:20:07;101557.88;;;15.41;46.65
73566;BME280;61846;52.970;-3.168;2023-05-28T04:22:32;101558.54;;;15.44;46.65
73566;BME280;61846;52.970;-3.168;2023-05-28T04:24:57;101553.36;;;15.69;46.26
73566;BME280;61846;52.970;-3.168;2023-05-28T04:27:23;101550.51;;;15.62;45.80
73566;BME280;61846;52.970;-3.168;2023-05-28T04:29:48;101557.89;;;15.68;46.44
73566;BME280;61846;52.970;-3.168;2023-05-28T04:32:14;101552.92;;;15.96;45.91
73566;BME280;61846;52.970;-3.168;2023-05-28T04:34:39;101551.80;;;15.12;47.71
73566;BME280;61846;52.970;-3.168;2023-05-28T04:37:05;101556.70;;;14.88;48.49
73566;BME280;61846;52.970;-3.168;2023-05-28T04:39:30;101565.12;;;14.13;49.91
73566;BME280;61846;52.970;-3.168;2023-05-28T04:41:55;101570.25;;;14.64;48.78
73566;BME280;61846;52.970;-3.168;2023-05-28T04:44:21;101565.28;;;14.77;49.06
73566;BME280;61846;52.970;-3.168;2023-05-28T04:46:47;101562.03;;;15.17;48.27
73566;BME280;61846;52.970;-3.168;2023-05-28T04:49:12;101565.68;;;15.39;47.09
73566;BME280;61846;52.970;-3.168;2023-05-28T04:51:37;101564.86;;;15.04;47.26
73566;BME280;61846;52.970;-3.168;2023-05-28T04:54:03;101571.01;;;15.01;47.41
73566;BME280;61846;52.970;-3.168;2023-05-28T04:56:34;101571.58;;;14.30;49.14
73566;BME280;61846;52.970;-3.168;2023-05-28T04:58:54;101568.84;;;14.12;49.08
73566;BME280;61846;52.970;-3.168;2023-05-28T05:01:19;101565.72;;;15.29;47.84
73566;BME280;61846;52.970;-3.168;2023-05-28T05:03:44;101562.95;;;14.46;48.45
73566;BME280;61846;52.970;-3.168;2023-05-28T05:06:10;101563.86;;;14.51;48.17
73566;BME280;61846;52.970;-3.168;2023-05-28T05:08:35;101563.52;;;14.47;49.08
73566;BME280;61846;52.970;-3.168;2023-05-28T05:11:01;101565.38;;;14.68;48.32
73566;BME280;61846;52.970;-3.168;2023-05-28T05:13:26;101565.76;;;14.50;48.81
73566;BME280;61846;52.970;-3.168;2023-05-28T05:15:52;101564.38;;;14.91;48.09
73566;BME280;61846;52.970;-3.168;2023-05-28T05:18:17;101564.64;;;15.27;47.33
73566;BME280;61846;52.970;-3.168;2023-05-28T05:20:42;101564.67;;;14.36;48.13
73566;BME280;61846;52.970;-3.168;2023-05-28T05:23:08;101565.15;;;14.66;48.04
73566;BME280;61846;52.970;-3.168;2023-05-28T05:25:33;101563.16;;;15.39;46.89
73566;BME280;61846;52.970;-3.168;2023-05-28T05:27:59;101559.71;;;15.23;46.65
73566;BME280;61846;52.970;-3.168;2023-05-28T05:30:24;101554.79;;;15.38;46.85
73566;BME280;61846;52.970;-3.168;2023-05-28T05:32:50;101564.02;;;15.40;46.53
73566;BME280;61846;52.970;-3.168;2023-05-28T05:35:16;101564.85;;;15.19;46.81
73566;BME280;61846;52.970;-3.168;2023-05-28T05:37:41;101570.08;;;15.03;47.39
73566;BME280;61846;52.970;-3.168;2023-05-28T05:40:07;101566.89;;;15.59;46.34
73566;BME280;61846;52.970;-3.168;2023-05-28T05:42:32;101567.12;;;15.66;45.71
73566;BME280;61846;52.970;-3.168;2023-05-28T05:44:56;101566.82;;;15.07;46.64
73566;BME280;61846;52.970;-3.168;2023-05-28T05:47:22;101563.65;;;16.43;44.82
73566;BME280;61846;52.970;-3.168;2023-05-28T05:49:48;101567.48;;;16.01;45.03
73566;BME280;61846;52.970;-3.168;2023-05-28T05:52:13;101572.76;;;16.61;43.41
73566;BME280;61846;52.970;-3.168;2023-05-28T05:54:38;101575.68;;;16.84;43.00
73566;BME280;61846;52.970;-3.168;2023-05-28T05:57:05;101576.24;;;16.53;42.97
73566;BME280;61846;52.970;-3.168;2023-05-28T05:59:29;101578.10;;;16.88;42.57
73566;BME280;61846;52.970;-3.168;2023-05-28T06:01:55;101579.62;;;16.52;42.23
73566;BME280;61846;52.970;-3.168;2023-05-28T06:04:20;101581.46;;;16.00;43.58
73566;BME280;61846;52.970;-3.168;2023-05-28T06:06:46;101583.69;;;15.97;43.33
73566;BME280;61846;52.970;-3.168;2023-05-28T06:09:11;101585.76;;;15.65;44.20
73566;BME280;61846;52.970;-3.168;2023-05-28T06:11:37;101583.20;;;15.66;44.32
73566;BME280;61846;52.970;-3.168;2023-05-28T06:14:02;101577.29;;;15.28;44.83
73566;BME280;61846;52.970;-3.168;2023-05-28T06:16:27;101581.15;;;15.40;45.24
73566;BME280;61846;52.970;-3.168;2023-05-28T06:18:53;101582.91;;;15.54;45.37
73566;BME280;61846;52.970;-3.168;2023-05-28T06:21:18;101588.65;;;14.97;46.42
73566;BME280;61846;52.970;-3.168;2023-05-28T06:23:44;101589.63;;;15.06;45.99
73566;BME280;61846;52.970;-3.168;2023-05-28T06:26:10;101589.71;;;15.43;45.09
73566;BME280;61846;52.970;-3.168;2023-05-28T06:28:35;101586.59;;;15.56;44.51
73566;BME280;61846;52.970;-3.168;2023-05-28T06:31:00;101581.65;;;15.96;44.18
73566;BME280;61846;52.970;-3.168;2023-05-28T06:33:26;101582.83;;;15.66;44.20
73566;BME280;61846;52.970;-3.168;2023-05-28T06:35:52;101583.52;;;15.57;44.00
73566;BME280;61846;52.970;-3.168;2023-05-28T06:38:17;101579.96;;;16.40;42.89
73566;BME280;61846;52.970;-3.168;2023-05-28T06:40:43;101585.21;;;15.27;44.07
73566;BME280;61846;52.970;-3.168;2023-05-28T06:43:08;101588.89;;;15.27;45.46
73566;BME280;61846;52.970;-3.168;2023-05-28T06:45:33;101582.57;;;15.35;45.40
73566;BME280;61846;52.970;-3.168;2023-05-28T06:47:59;101584.16;;;15.40;46.03
73566;BME280;61846;52.970;-3.168;2023-05-28T06:50:24;101592.51;;;15.31;45.84
73566;BME280;61846;52.970;-3.168;2023-05-28T06:52:50;101597.24;;;16.00;44.11
73566;BME280;61846;52.970;-3.168;2023-05-28T06:55:15;101592.70;;;16.19;43.85
73566;BME280;61846;52.970;-3.168;2023-05-28T06:57:41;101593.67;;;16.53;43.05
73566;BME280;61846;52.970;-3.168;2023-05-28T07:00:08;101600.18;;;16.74;42.88
73566;BME280;61846;52.970;-3.168;2023-05-28T07:02:32;101601.08;;;17.25;42.17
73566;BME280;61846;52.970;-3.168;2023-05-28T07:04:57;101597.57;;;16.88;41.75
73566;BME280;61846;52.970;-3.168;2023-05-28T07:07:22;101598.45;;;17.33;41.61
73566;BME280;61846;52.970;-3.168;2023-05-28T07:09:48;101597.15;;;16.10;42.41
73566;BME280;61846;52.970;-3.168;2023-05-28T07:12:13;101598.18;;;16.28;43.94
73566;BME280;61846;52.970;-3.168;2023-05-28T07:14:39;101600.54;;;16.21;44.50
73566;BME280;61846;52.970;-3.168;2023-05-28T07:17:04;101603.95;;;16.45;43.22
73566;BME280;61846;52.970;-3.168;2023-05-28T07:19:29;101608.29;;;16.65;42.72
73566;BME280;61846;52.970;-3.168;2023-05-28T07:21:55;101612.89;;;16.77;42.73
73566;BME280;61846;52.970;-3.168;2023-05-28T07:24:20;101617.59;;;16.78;42.72
73566;BME280;61846;52.970;-3.168;2023-05-28T07:26:46;101626.29;;;15.55;44.07
73566;BME280;61846;52.970;-3.168;2023-05-28T07:29:11;101621.79;;;15.42;45.73
73566;BME280;61846;52.970;-3.168;2023-05-28T07:31:37;101620.48;;;15.63;45.64
73566;BME280;61846;52.970;-3.168;2023-05-28T07:34:03;101626.66;;;15.94;43.78
73566;BME280;61846;52.970;-3.168;2023-05-28T07:36:28;101627.78;;;16.00;43.77
73566;BME280;61846;52.970;-3.168;2023-05-28T07:38:54;101633.39;;;17.16;41.85
73566;BME280;61846;52.970;-3.168;2023-05-28T07:41:19;101635.74;;;16.55;42.17
73566;BME280;61846;52.970;-3.168;2023-05-28T07:43:45;101635.84;;;17.00;41.03
73566;BME280;61846;52.970;-3.168;2023-05-28T07:46:10;101633.35;;;17.22;40.34
73566;BME280;61846;52.970;-3.168;2023-05-28T07:48:35;101640.68;;;16.91;40.23
73566;BME280;61846;52.970;-3.168;2023-05-28T07:51:01;101638.79;;;17.36;39.64
73566;BME280;61846;52.970;-3.168;2023-05-28T07:53:26;101643.05;;;15.82;42.00
73566;BME280;61846;52.970;-3.168;2023-05-28T07:55:52;101638.63;;;16.47;41.33
73566;BME280;61846;52.970;-3.168;2023-05-28T07:58:17;101636.72;;;16.53;41.76
73566;BME280;61846;52.970;-3.168;2023-05-28T08:00:42;101646.18;;;15.96;40.31
73566;BME280;61846;52.970;-3.168;2023-05-28T08:03:07;101641.42;;;16.45;41.20
73566;BME280;61846;52.970;-3.168;2023-05-28T08:05:33;101643.41;;;16.85;39.27
73566;BME280;61846;52.970;-3.168;2023-05-28T08:07:59;101643.58;;;17.27;39.50
73566;BME280;61846;52.970;-3.168;2023-05-28T08:10:23;101644.29;;;17.54;37.76
73566;BME280;61846;52.970;-3.168;2023-05-28T08:12:49;101653.59;;;17.02;38.60
73566;BME280;61846;52.970;-3.168;2023-05-28T08:15:14;101647.83;;;17.87;36.99
73566;BME280;61846;52.970;-3.168;2023-05-28T08:17:39;101651.03;;;17.89;35.66
73566;BME280;61846;52.970;-3.168;2023-05-28T08:20:06;101650.01;;;18.20;33.89
73566;BME280;61846;52.970;-3.168;2023-05-28T08:22:30;101648.07;;;18.13;34.31
73566;BME280;61846;52.970;-3.168;2023-05-28T08:24:55;101648.23;;;18.29;35.85
73566;BME280;61846;52.970;-3.168;2023-05-28T08:27:21;101643.51;;;18.58;32.95
73566;BME280;61846;52.970;-3.168;2023-05-28T08:29:46;101643.41;;;17.38;35.69
73566;BME280;61846;52.970;-3.168;2023-05-28T08:32:12;101637.65;;;17.96;34.84
73566;BME280;61846;52.970;-3.168;2023-05-28T08:34:37;101643.75;;;18.62;32.87
73566;BME280;61846;52.970;-3.168;2023-05-28T08:37:03;101650.66;;;18.13;33.96
73566;BME280;61846;52.970;-3.168;2023-05-28T08:39:28;101646.53;;;18.63;33.45
73566;BME280;61846;52.970;-3.168;2023-05-28T08:41:54;101644.14;;;18.79;32.92
73566;BME280;61846;52.970;-3.168;2023-05-28T08:44:19;101650.23;;;19.43;32.43
73566;BME280;61846;52.970;-3.168;2023-05-28T08:46:44;101645.12;;;19.38;31.82
73566;BME280;61846;52.970;-3.168;2023-05-28T08:49:10;101647.51;;;19.60;31.51
73566;BME280;61846;52.970;-3.168;2023-05-28T08:51:35;101644.50;;;19.60;30.70
73566;BME280;61846;52.970;-3.168;2023-05-28T08:54:00;101647.54;;;19.37;32.36
73566;BME280;61846;52.970;-3.168;2023-05-28T08:56:25;101643.61;;;19.25;32.48
73566;BME280;61846;52.970;-3.168;2023-05-28T08:58:51;101633.91;;;19.58;31.40
73566;BME280;61846;52.970;-3.168;2023-05-28T09:01:16;101625.42;;;20.68;31.18
73566;BME280;61846;52.970;-3.168;2023-05-28T09:03:41;101628.47;;;20.00;31.21
73566;BME280;61846;52.970;-3.168;2023-05-28T09:06:07;101632.71;;;19.99;32.68
73566;BME280;61846;52.970;-3.168;2023-05-28T09:08:33;101627.09;;;19.83;33.35
73566;BME280;61846;52.970;-3.168;2023-05-28T09:10:58;101619.37;;;20.77;29.71
73566;BME280;61846;52.970;-3.168;2023-05-28T09:13:23;101623.04;;;20.79;30.42
73566;BME280;61846;52.970;-3.168;2023-05-28T09:15:50;101622.45;;;20.88;31.37
73566;BME280;61846;52.970;-3.168;2023-05-28T09:18:13;101619.11;;;20.71;29.81
73566;BME280;61846;52.970;-3.168;2023-05-28T09:20:38;101624.00;;;20.46;32.47
73566;BME280;61846;52.970;-3.168;2023-05-28T09:23:05;101625.67;;;19.90;32.95
73566;BME280;61846;52.970;-3.168;2023-05-28T09:25:29;101615.46;;;20.81;30.63
73566;BME280;61846;52.970;-3.168;2023-05-28T09:27:56;101619.10;;;20.30;30.79
73566;BME280;61846;52.970;-3.168;2023-05-28T09:30:20;101614.39;;;21.06;31.08
73566;BME280;61846;52.970;-3.168;2023-05-28T09:32:45;101607.81;;;21.28;30.17
73566;BME280;61846;52.970;-3.168;2023-05-28T09:35:10;101605.83;;;21.40;28.69
73566;BME280;61846;52.970;-3.168;2023-05-28T09:37:35;101602.33;;;20.79;29.42
73566;BME280;61846;52.970;-3.168;2023-05-28T09:40:01;101600.80;;;21.31;29.24
73566;BME280;61846;52.970;-3.168;2023-05-28T09:42:31;101604.78;;;21.19;29.82
73566;BME280;61846;52.970;-3.168;2023-05-28T09:44:51;101611.47;;;21.10;30.05
73566;BME280;61846;52.970;-3.168;2023-05-28T09:47:18;101613.63;;;21.64;28.28
73566;BME280;61846;52.970;-3.168;2023-05-28T09:49:43;101610.80;;;21.86;29.99
73566;BME280;61846;52.970;-3.168;2023-05-28T09:52:09;101611.21;;;21.72;30.39
73566;BME280;61846;52.970;-3.168;2023-05-28T09:54:35;101616.12;;;21.77;29.11
73566;BME280;61846;52.970;-3.168;2023-05-28T09:56:58;101616.43;;;21.53;28.89
73566;BME280;61846;52.970;-3.168;2023-05-28T09:59:24;101616.51;;;22.17;29.42
73566;BME280;61846;52.970;-3.168;2023-05-28T10:01:55;101611.93;;;21.61;30.74
73566;BME280;61846;52.970;-3.168;2023-05-28T10:04:17;101605.76;;;21.58;30.63
73566;BME280;61846;52.970;-3.168;2023-05-28T10:06:40;101601.73;;;22.11;30.27
73566;BME280;61846;52.970;-3.168;2023-05-28T10:09:05;101602.57;;;22.38;29.14
73566;BME280;61846;52.970;-3.168;2023-05-28T10:11:34;101602.38;;;21.79;30.05
73566;BME280;61846;52.970;-3.168;2023-05-28T10:13:56;101605.19;;;22.51;29.89
73566;BME280;61846;52.970;-3.168;2023-05-28T10:16:21;101604.79;;;22.89;28.72
73566;BME280;61846;52.970;-3.168;2023-05-28T10:18:46;101603.93;;;22.99;28.37
73566;BME280;61846;52.970;-3.168;2023-05-28T10:21:12;101612.45;;;23.04;29.03
73566;BME280;61846;52.970;-3.168;2023-05-28T10:23:37;101610.31;;;23.51;27.74
73566;BME280;61846;52.970;-3.168;2023-05-28T10:26:03;101603.02;;;23.47;26.23
73566;BME280;61846;52.970;-3.168;2023-05-28T10:28:29;101601.76;;;23.42;26.35
73566;BME280;61846;52.970;-3.168;2023-05-28T10:31:03;101599.69;;;22.58;27.43
73566;BME280;61846;52.970;-3.168;2023-05-28T10:33:18;101596.91;;;22.46;29.10
73566;BME280;61846;52.970;-3.168;2023-05-28T10:35:53;101591.71;;;22.17;28.00
73566;BME280;61846;52.970;-3.168;2023-05-28T10:38:09;101596.14;;;22.68;27.76
73566;BME280;61846;52.970;-3.168;2023-05-28T10:40:34;101591.18;;;23.01;29.28
73566;BME280;61846;52.970;-3.168;2023-05-28T10:43:00;101586.20;;;22.77;27.28
73566;BME280;61846;52.970;-3.168;2023-05-28T10:45:33;101582.58;;;22.86;28.55
73566;BME280;61846;52.970;-3.168;2023-05-28T10:47:52;101584.90;;;23.27;28.48
73566;BME280;61846;52.970;-3.168;2023-05-28T10:50:16;101582.20;;;23.08;26.67
73566;BME280;61846;52.970;-3.168;2023-05-28T10:52:41;101583.56;;;23.31;26.59
73566;BME280;61846;52.970;-3.168;2023-05-28T10:55:08;101585.04;;;22.66;28.45
73566;BME280;61846;52.970;-3.168;2023-05-28T10:57:39;101588.30;;;23.47;27.26
73566;BME280;61846;52.970;-3.168;2023-05-28T10:59:59;101585.08;;;24.92;24.87
73566;BME280;61846;52.970;-3.168;2023-05-28T11:02:23;101589.64;;;24.65;25.15
73566;BME280;61846;52.970;-3.168;2023-05-28T11:04:50;101589.80;;;23.79;26.39
73566;BME280;61846;52.970;-3.168;2023-05-28T11:07:13;101592.97;;;23.52;28.01
73566;BME280;61846;52.970;-3.168;2023-05-28T11:09:38;101592.29;;;21.62;29.22
73566;BME280;61846;52.970;-3.168;2023-05-28T11:12:04;101591.47;;;23.90;27.27
73566;BME280;61846;52.970;-3.168;2023-05-28T11:14:33;101588.48;;;24.43;26.29
73566;BME280;61846;52.970;-3.168;2023-05-28T11:16:54;101591.05;;;24.33;25.96
73566;BME280;61846;52.970;-3.168;2023-05-28T11:19:19;101587.10;;;24.65;25.86
73566;BME280;61846;52.970;-3.168;2023-05-28T11:21:51;101581.48;;;24.70;25.52
73566;BME280;61846;52.970;-3.168;2023-05-28T11:24:10;101583.05;;;24.67;26.94
73566;BME280;61846;52.970;-3.168;2023-05-28T11:26:35;101586.66;;;24.46;25.98
73566;BME280;61846;52.970;-3.168;2023-05-28T11:29:01;101589.42;;;23.25;28.26
73566;BME280;61846;52.970;-3.168;2023-05-28T11:31:26;101584.40;;;24.51;27.51
73566;BME280;61846;52.970;-3.168;2023-05-28T11:33:51;101587.05;;;23.58;27.81
73566;BME280;61846;52.970;-3.168;2023-05-28T11:36:18;101586.52;;;24.01;26.85
73566;BME280;61846;52.970;-3.168;2023-05-28T11:38:42;101590.65;;;23.99;27.62
73566;BME280;61846;52.970;-3.168;2023-05-28T11:41:07;101597.59;;;23.73;28.40
73566;BME280;61846;52.970;-3.168;2023-05-28T11:43:33;101594.99;;;23.77;28.13
73566;BME280;61846;52.970;-3.168;2023-05-28T11:45:59;101584.11;;;23.01;29.09
73566;BME280;61846;52.970;-3.168;2023-05-28T11:48:23;101582.60;;;22.92;28.81
73566;BME280;61846;52.970;-3.168;2023-05-28T11:50:56;101581.18;;;23.60;27.93
73566;BME280;61846;52.970;-3.168;2023-05-28T11:53:14;101579.95;;;23.58;27.85
73566;BME280;61846;52.970;-3.168;2023-05-28T11:55:39;101574.91;;;23.23;27.75
73566;BME280;61846;52.970;-3.168;2023-05-28T11:58:05;101576.98;;;23.79;28.63
73566;BME280;61846;52.970;-3.168;2023-05-28T12:00:31;101580.77;;;23.71;28.16
73566;BME280;61846;52.970;-3.168;2023-05-28T12:02:56;101581.09;;;23.06;29.24
73566;BME280;61846;52.970;-3.168;2023-05-28T12:05:21;101579.77;;;23.76;27.44
73566;BME280;61846;52.970;-3.168;2023-05-28T12:07:48;101572.63;;;23.00;27.51
73566;BME280;61846;52.970;-3.168;2023-05-28T12:10:14;101575.26;;;23.98;28.45
73566;BME280;61846;52.970;-3.168;2023-05-28T12:12:40;101580.17;;;22.82;27.97
73566;BME280;61846;52.970;-3.168;2023-05-28T12:15:04;101580.59;;;21.54;29.13
73566;BME280;61846;52.970;-3.168;2023-05-28T12:17:33;101581.86;;;22.38;29.08
73566;BME280;61846;52.970;-3.168;2023-05-28T12:19:53;101580.48;;;22.96;28.85
73566;BME280;61846;52.970;-3.168;2023-05-28T12:22:19;101579.67;;;23.05;28.23
73566;BME280;61846;52.970;-3.168;2023-05-28T12:24:49;101579.77;;;23.06;28.04
73566;BME280;61846;52.970;-3.168;2023-05-28T12:27:09;101581.50;;;22.20;28.55
73566;BME280;61846;52.970;-3.168;2023-05-28T12:29:35;101579.75;;;22.62;28.49